sensor_id;sensor_type;location;lat;lon;timestamp;temperature;humidity
24207;DHT22;12351;52.284;9.160;2022-07-03T00:01:13;19.70;99.90
24207;DHT22;12351;52.284;9.160;2022-07-03T00:03:43;19.80;99.90
24207;DHT22;12351;52.284;9.160;2022-07-03T00:06:16;19.90;99.90
24207;DHT22;12351;52.284;9.160;2022-07-03T00:08:48;19.80;99.90
24207;DHT22;12351;52.284;9.160;2022-07-03T00:11:20;19.80;99.90
24207;DHT22;12351;52.284;9.160;2022-07-03T00:13:53;19.70;99.90
24207;DHT22;12351;52.284;9.160;2022-07-03T00:16:24;19.80;99.90
24207;DHT22;12351;52.284;9.160;2022-07-03T00:18:54;19.80;99.90
24207;DHT22;12351;52.284;9.160;2022-07-03T00:21:28;19.70;99.90
24207;DHT22;12351;52.284;9.160;2022-07-03T00:26:44;19.70;99.90
24207;DHT22;12351;52.284;9.160;2022-07-03T00:29:15;19.80;99.90
24207;DHT22;12351;52.284;9.160;2022-07-03T00:31:50;19.70;99.90
24207;DHT22;12351;52.284;9.160;2022-07-03T00:34:21;19.80;99.90
24207;DHT22;12351;52.284;9.160;2022-07-03T00:36:58;19.80;99.90
24207;DHT22;12351;52.284;9.160;2022-07-03T00:39:31;19.80;99.90
24207;DHT22;12351;52.284;9.160;2022-07-03T00:42:04;19.70;99.90
24207;DHT22;12351;52.284;9.160;2022-07-03T00:44:44;19.70;99.90
24207;DHT22;12351;52.284;9.160;2022-07-03T00:47:11;19.70;99.90
24207;DHT22;12351;52.284;9.160;2022-07-03T00:49:46;19.80;99.90
24207;DHT22;12351;52.284;9.160;2022-07-03T00:52:17;19.80;99.90
24207;DHT22;12351;52.284;9.160;2022-07-03T00:54:51;19.80;99.90
24207;DHT22;12351;52.284;9.160;2022-07-03T00:57:23;19.90;99.90
24207;DHT22;12351;52.284;9.160;2022-07-03T00:59:56;19.90;99.90
24207;DHT22;12351;52.284;9.160;2022-07-03T01:07:35;19.80;99.90
24207;DHT22;12351;52.284;9.160;2022-07-03T01:12:38;19.80;99.90
24207;DHT22;12351;52.284;9.160;2022-07-03T01:15:10;19.80;99.90
24207;DHT22;12351;52.284;9.160;2022-07-03T01:20:17;19.90;99.90
24207;DHT22;12351;52.284;9.160;2022-07-03T01:22:52;19.90;99.90
24207;DHT22;12351;52.284;9.160;2022-07-03T01:25:26;19.90;99.90
24207;DHT22;12351;52.284;9.160;2022-07-03T01:27:59;19.90;99.90
24207;DHT22;12351;52.284;9.160;2022-07-03T01:30:33;19.90;99.90
24207;DHT22;12351;52.284;9.160;2022-07-03T01:35:41;19.90;99.90
24207;DHT22;12351;52.284;9.160;2022-07-03T01:38:16;19.90;99.90
24207;DHT22;12351;52.284;9.160;2022-07-03T01:40:50;19.90;99.90
24207;DHT22;12351;52.284;9.160;2022-07-03T01:45:56;19.90;99.90
24207;DHT22;12351;52.284;9.160;2022-07-03T01:48:30;19.90;99.90
24207;DHT22;12351;52.284;9.160;2022-07-03T01:51:01;19.80;99.90
24207;DHT22;12351;52.284;9.160;2022-07-03T01:53:35;19.80;99.90
24207;DHT22;12351;52.284;9.160;2022-07-03T01:56:11;19.80;99.90
24207;DHT22;12351;52.284;9.160;2022-07-03T01:58:41;19.80;99.90
24207;DHT22;12351;52.284;9.160;2022-07-03T02:08:55;19.80;99.90
24207;DHT22;12351;52.284;9.160;2022-07-03T02:11:22;19.70;99.90
24207;DHT22;12351;52.284;9.160;2022-07-03T02:16:28;19.80;99.90
24207;DHT22;12351;52.284;9.160;2022-07-03T02:19:03;19.80;99.90
24207;DHT22;12351;52.284;9.160;2022-07-03T02:21:32;19.70;99.90
24207;DHT22;12351;52.284;9.160;2022-07-03T02:26:39;19.80;99.90
24207;DHT22;12351;52.284;9.160;2022-07-03T02:29:12;19.80;99.90
24207;DHT22;12351;52.284;9.160;2022-07-03T02:31:45;19.80;99.90
24207;DHT22;12351;52.284;9.160;2022-07-03T02:34:22;19.80;99.90
24207;DHT22;12351;52.284;9.160;2022-07-03T02:36:56;19.80;99.90
24207;DHT22;12351;52.284;9.160;2022-07-03T02:39:32;19.80;99.90
24207;DHT22;12351;52.284;9.160;2022-07-03T02:42:02;19.70;99.90
24207;DHT22;12351;52.284;9.160;2022-07-03T02:44:40;19.60;99.90
24207;DHT22;12351;52.284;9.160;2022-07-03T02:52:17;19.70;99.90
24207;DHT22;12351;52.284;9.160;2022-07-03T02:54:46;19.70;99.90
24207;DHT22;12351;52.284;9.160;2022-07-03T02:57:18;19.70;99.90
24207;DHT22;12351;52.284;9.160;2022-07-03T02:59:53;19.70;99.90
24207;DHT22;12351;52.284;9.160;2022-07-03T03:04:59;19.70;99.90
24207;DHT22;12351;52.284;9.160;2022-07-03T03:07:33;19.70;99.90
24207;DHT22;12351;52.284;9.160;2022-07-03T03:10:03;19.60;99.90
24207;DHT22;12351;52.284;9.160;2022-07-03T03:12:37;19.60;99.90
24207;DHT22;12351;52.284;9.160;2022-07-03T03:15:12;19.60;99.90
24207;DHT22;12351;52.284;9.160;2022-07-03T03:17:50;19.60;99.90
24207;DHT22;12351;52.284;9.160;2022-07-03T03:20:17;19.70;99.90
24207;DHT22;12351;52.284;9.160;2022-07-03T03:25:27;19.70;99.90
24207;DHT22;12351;52.284;9.160;2022-07-03T03:27:59;19.60;99.90
24207;DHT22;12351;52.284;9.160;2022-07-03T03:30:32;19.70;99.90
24207;DHT22;12351;52.284;9.160;2022-07-03T03:33:02;19.70;99.90
24207;DHT22;12351;52.284;9.160;2022-07-03T03:35:38;19.60;99.90
24207;DHT22;12351;52.284;9.160;2022-07-03T03:38:12;19.80;99.90
24207;DHT22;12351;52.284;9.160;2022-07-03T03:40:44;19.90;99.90
24207;DHT22;12351;52.284;9.160;2022-07-03T03:43:15;20.30;99.90
24207;DHT22;12351;52.284;9.160;2022-07-03T03:45:46;20.70;99.90
24207;DHT22;12351;52.284;9.160;2022-07-03T03:48:16;21.20;99.90
24207;DHT22;12351;52.284;9.160;2022-07-03T03:50:47;21.50;99.90
24207;DHT22;12351;52.284;9.160;2022-07-03T03:53:20;21.50;99.90
24207;DHT22;12351;52.284;9.160;2022-07-03T03:58:22;21.90;99.90
24207;DHT22;12351;52.284;9.160;2022-07-03T04:00:55;22.00;99.90
24207;DHT22;12351;52.284;9.160;2022-07-03T04:03:25;22.10;99.90
24207;DHT22;12351;52.284;9.160;2022-07-03T04:05:56;22.10;99.90
24207;DHT22;12351;52.284;9.160;2022-07-03T04:08:29;22.10;99.90
24207;DHT22;12351;52.284;9.160;2022-07-03T04:11:02;22.20;99.90
24207;DHT22;12351;52.284;9.160;2022-07-03T04:13:34;22.10;99.90
24207;DHT22;12351;52.284;9.160;2022-07-03T04:16:05;22.00;99.90
24207;DHT22;12351;52.284;9.160;2022-07-03T04:18:37;22.10;99.90
24207;DHT22;12351;52.284;9.160;2022-07-03T04:21:06;22.10;99.90
24207;DHT22;12351;52.284;9.160;2022-07-03T04:23:36;22.20;99.90
24207;DHT22;12351;52.284;9.160;2022-07-03T04:26:10;22.30;99.90
24207;DHT22;12351;52.284;9.160;2022-07-03T04:28:40;22.30;99.90
24207;DHT22;12351;52.284;9.160;2022-07-03T04:31:11;22.20;99.90
24207;DHT22;12351;52.284;9.160;2022-07-03T04:33:41;22.30;99.90
24207;DHT22;12351;52.284;9.160;2022-07-03T04:36:10;22.10;99.90
24207;DHT22;12351;52.284;9.160;2022-07-03T04:38:42;22.00;99.90
24207;DHT22;12351;52.284;9.160;2022-07-03T04:41:13;21.80;99.90
24207;DHT22;12351;52.284;9.160;2022-07-03T04:43:44;21.70;99.90
24207;DHT22;12351;52.284;9.160;2022-07-03T04:46:19;21.50;99.90
24207;DHT22;12351;52.284;9.160;2022-07-03T04:48:49;21.50;99.90
24207;DHT22;12351;52.284;9.160;2022-07-03T04:51:22;21.40;99.90
24207;DHT22;12351;52.284;9.160;2022-07-03T04:53:54;21.50;99.90
24207;DHT22;12351;52.284;9.160;2022-07-03T04:56:26;21.60;99.90
24207;DHT22;12351;52.284;9.160;2022-07-03T04:58:55;21.70;99.90
24207;DHT22;12351;52.284;9.160;2022-07-03T05:01:27;21.80;99.90
24207;DHT22;12351;52.284;9.160;2022-07-03T05:03:57;21.90;99.90
24207;DHT22;12351;52.284;9.160;2022-07-03T05:06:33;21.80;99.90
24207;DHT22;12351;52.284;9.160;2022-07-03T05:09:02;21.60;99.90
24207;DHT22;12351;52.284;9.160;2022-07-03T05:11:39;21.60;99.90
24207;DHT22;12351;52.284;9.160;2022-07-03T05:14:12;21.80;99.90
24207;DHT22;12351;52.284;9.160;2022-07-03T05:16:44;21.90;99.90
24207;DHT22;12351;52.284;9.160;2022-07-03T05:19:16;22.00;99.90
24207;DHT22;12351;52.284;9.160;2022-07-03T05:21:51;22.20;99.90
24207;DHT22;12351;52.284;9.160;2022-07-03T05:24:27;22.20;99.90
24207;DHT22;12351;52.284;9.160;2022-07-03T05:26:59;22.30;99.90
24207;DHT22;12351;52.284;9.160;2022-07-03T05:29:31;22.40;99.90
24207;DHT22;12351;52.284;9.160;2022-07-03T05:32:02;22.20;99.90
24207;DHT22;12351;52.284;9.160;2022-07-03T05:34:36;22.30;99.90
24207;DHT22;12351;52.284;9.160;2022-07-03T05:37:07;22.50;99.90
24207;DHT22;12351;52.284;9.160;2022-07-03T05:39:41;22.60;99.90
24207;DHT22;12351;52.284;9.160;2022-07-03T05:42:14;22.50;99.90
24207;DHT22;12351;52.284;9.160;2022-07-03T05:44:48;22.30;99.90
24207;DHT22;12351;52.284;9.160;2022-07-03T05:47:21;22.40;99.90
24207;DHT22;12351;52.284;9.160;2022-07-03T05:49:53;22.50;99.90
24207;DHT22;12351;52.284;9.160;2022-07-03T05:52:26;22.70;99.90
24207;DHT22;12351;52.284;9.160;2022-07-03T05:54:57;22.60;99.90
24207;DHT22;12351;52.284;9.160;2022-07-03T05:57:29;22.90;99.90
24207;DHT22;12351;52.284;9.160;2022-07-03T05:59:59;22.90;99.90
24207;DHT22;12351;52.284;9.160;2022-07-03T06:02:32;23.00;99.90
24207;DHT22;12351;52.284;9.160;2022-07-03T06:05:05;23.00;99.90
24207;DHT22;12351;52.284;9.160;2022-07-03T06:07:36;23.40;99.90
24207;DHT22;12351;52.284;9.160;2022-07-03T06:10:05;23.50;99.90
24207;DHT22;12351;52.284;9.160;2022-07-03T06:12:36;23.50;99.90
24207;DHT22;12351;52.284;9.160;2022-07-03T06:15:09;23.10;99.90
24207;DHT22;12351;52.284;9.160;2022-07-03T06:17:40;22.90;99.90
24207;DHT22;12351;52.284;9.160;2022-07-03T06:20:14;22.60;99.90
24207;DHT22;12351;52.284;9.160;2022-07-03T06:22:45;22.70;99.90
24207;DHT22;12351;52.284;9.160;2022-07-03T06:25:19;22.60;99.90
24207;DHT22;12351;52.284;9.160;2022-07-03T06:27:49;22.40;99.90
24207;DHT22;12351;52.284;9.160;2022-07-03T06:30:22;22.40;99.90
24207;DHT22;12351;52.284;9.160;2022-07-03T06:32:53;22.50;99.90
24207;DHT22;12351;52.284;9.160;2022-07-03T06:35:23;22.20;99.90
24207;DHT22;12351;52.284;9.160;2022-07-03T06:37:54;22.40;99.90
24207;DHT22;12351;52.284;9.160;2022-07-03T06:40:24;22.30;99.90
24207;DHT22;12351;52.284;9.160;2022-07-03T06:42:55;22.70;99.90
24207;DHT22;12351;52.284;9.160;2022-07-03T06:45:28;22.90;99.90
24207;DHT22;12351;52.284;9.160;2022-07-03T06:47:58;23.20;99.90
24207;DHT22;12351;52.284;9.160;2022-07-03T06:50:32;23.50;99.90
24207;DHT22;12351;52.284;9.160;2022-07-03T06:53:07;23.50;99.90
24207;DHT22;12351;52.284;9.160;2022-07-03T06:55:39;23.80;99.90
24207;DHT22;12351;52.284;9.160;2022-07-03T06:58:11;23.90;99.90
24207;DHT22;12351;52.284;9.160;2022-07-03T07:00:42;23.70;99.90
24207;DHT22;12351;52.284;9.160;2022-07-03T07:03:16;23.80;99.90
24207;DHT22;12351;52.284;9.160;2022-07-03T07:05:50;23.90;99.90
24207;DHT22;12351;52.284;9.160;2022-07-03T07:08:24;23.90;99.90
24207;DHT22;12351;52.284;9.160;2022-07-03T07:10:57;23.90;99.90
24207;DHT22;12351;52.284;9.160;2022-07-03T07:13:31;23.90;99.90
24207;DHT22;12351;52.284;9.160;2022-07-03T07:16:06;24.10;99.90
24207;DHT22;12351;52.284;9.160;2022-07-03T07:18:43;24.10;99.90
24207;DHT22;12351;52.284;9.160;2022-07-03T07:21:17;24.20;99.90
24207;DHT22;12351;52.284;9.160;2022-07-03T07:23:50;24.30;99.90
24207;DHT22;12351;52.284;9.160;2022-07-03T07:26:22;24.30;99.90
24207;DHT22;12351;52.284;9.160;2022-07-03T07:28:56;24.50;99.90
24207;DHT22;12351;52.284;9.160;2022-07-03T07:31:28;24.50;99.90
24207;DHT22;12351;52.284;9.160;2022-07-03T07:33:59;24.60;99.90
24207;DHT22;12351;52.284;9.160;2022-07-03T07:36:29;24.70;99.90
24207;DHT22;12351;52.284;9.160;2022-07-03T07:39:04;24.70;99.90
24207;DHT22;12351;52.284;9.160;2022-07-03T07:41:40;24.50;99.90
24207;DHT22;12351;52.284;9.160;2022-07-03T07:44:12;24.70;99.90
24207;DHT22;12351;52.284;9.160;2022-07-03T07:46:45;24.70;99.90
24207;DHT22;12351;52.284;9.160;2022-07-03T07:49:18;24.80;99.90
24207;DHT22;12351;52.284;9.160;2022-07-03T07:51:52;24.80;99.90
24207;DHT22;12351;52.284;9.160;2022-07-03T07:54:28;24.80;99.90
24207;DHT22;12351;52.284;9.160;2022-07-03T07:56:59;25.00;99.90
24207;DHT22;12351;52.284;9.160;2022-07-03T07:59:30;25.10;99.90
24207;DHT22;12351;52.284;9.160;2022-07-03T08:02:01;25.30;99.90
24207;DHT22;12351;52.284;9.160;2022-07-03T08:04:36;25.20;99.90
24207;DHT22;12351;52.284;9.160;2022-07-03T08:07:09;25.40;99.90
24207;DHT22;12351;52.284;9.160;2022-07-03T08:09:43;25.40;99.90
24207;DHT22;12351;52.284;9.160;2022-07-03T08:12:14;25.40;99.90
24207;DHT22;12351;52.284;9.160;2022-07-03T08:14:49;25.40;99.90
24207;DHT22;12351;52.284;9.160;2022-07-03T08:17:23;25.50;99.90
24207;DHT22;12351;52.284;9.160;2022-07-03T08:19:54;25.70;99.90
24207;DHT22;12351;52.284;9.160;2022-07-03T08:22:29;25.70;99.90
24207;DHT22;12351;52.284;9.160;2022-07-03T08:25:03;25.80;99.90
24207;DHT22;12351;52.284;9.160;2022-07-03T08:27:34;25.70;99.90
24207;DHT22;12351;52.284;9.160;2022-07-03T08:30:09;25.80;99.90
24207;DHT22;12351;52.284;9.160;2022-07-03T08:32:42;25.70;99.90
24207;DHT22;12351;52.284;9.160;2022-07-03T08:35:16;26.10;99.90
24207;DHT22;12351;52.284;9.160;2022-07-03T08:37:53;26.20;99.90
24207;DHT22;12351;52.284;9.160;2022-07-03T08:40:26;26.10;99.90
24207;DHT22;12351;52.284;9.160;2022-07-03T08:43:00;26.50;99.90
24207;DHT22;12351;52.284;9.160;2022-07-03T08:45:33;26.60;99.90
24207;DHT22;12351;52.284;9.160;2022-07-03T08:48:02;26.50;99.90
24207;DHT22;12351;52.284;9.160;2022-07-03T08:50:34;26.50;99.90
24207;DHT22;12351;52.284;9.160;2022-07-03T08:53:06;26.60;99.90
24207;DHT22;12351;52.284;9.160;2022-07-03T08:55:40;26.60;99.90
24207;DHT22;12351;52.284;9.160;2022-07-03T08:58:15;26.60;99.90
24207;DHT22;12351;52.284;9.160;2022-07-03T09:00:50;26.80;99.90
24207;DHT22;12351;52.284;9.160;2022-07-03T09:03:26;26.80;99.90
24207;DHT22;12351;52.284;9.160;2022-07-03T09:06:00;26.80;99.90
24207;DHT22;12351;52.284;9.160;2022-07-03T09:08:31;27.00;99.90
24207;DHT22;12351;52.284;9.160;2022-07-03T09:10:59;27.00;99.90
24207;DHT22;12351;52.284;9.160;2022-07-03T09:13:34;27.10;99.90
24207;DHT22;12351;52.284;9.160;2022-07-03T09:18:42;26.80;99.90
24207;DHT22;12351;52.284;9.160;2022-07-03T09:21:19;26.80;99.90
24207;DHT22;12351;52.284;9.160;2022-07-03T09:23:51;27.00;99.90
24207;DHT22;12351;52.284;9.160;2022-07-03T09:26:26;26.90;99.90
24207;DHT22;12351;52.284;9.160;2022-07-03T09:29:00;27.00;99.90
24207;DHT22;12351;52.284;9.160;2022-07-03T09:31:32;27.00;99.90
24207;DHT22;12351;52.284;9.160;2022-07-03T09:34:03;27.10;99.90
24207;DHT22;12351;52.284;9.160;2022-07-03T09:49:43;27.40;99.90
24207;DHT22;12351;52.284;9.160;2022-07-03T09:52:14;27.70;99.90
24207;DHT22;12351;52.284;9.160;2022-07-03T09:54:45;27.80;99.90
24207;DHT22;12351;52.284;9.160;2022-07-03T09:57:20;27.70;97.90
24207;DHT22;12351;52.284;9.160;2022-07-03T10:02:30;27.30;95.40
24207;DHT22;12351;52.284;9.160;2022-07-03T10:07:49;27.70;98.00
24207;DHT22;12351;52.284;9.160;2022-07-03T10:10:06;27.90;96.50
24207;DHT22;12351;52.284;9.160;2022-07-03T10:12:42;28.00;97.10
24207;DHT22;12351;52.284;9.160;2022-07-03T10:15:17;28.30;95.30
24207;DHT22;12351;52.284;9.160;2022-07-03T10:17:52;28.40;93.40
24207;DHT22;12351;52.284;9.160;2022-07-03T10:23:00;28.20;88.50
24207;DHT22;12351;52.284;9.160;2022-07-03T10:25:34;28.20;90.80
24207;DHT22;12351;52.284;9.160;2022-07-03T10:28:06;28.30;91.70
24207;DHT22;12351;52.284;9.160;2022-07-03T10:30:41;28.40;89.00
24207;DHT22;12351;52.284;9.160;2022-07-03T10:33:15;28.30;83.70
24207;DHT22;12351;52.284;9.160;2022-07-03T10:35:48;28.60;85.50
24207;DHT22;12351;52.284;9.160;2022-07-03T10:38:23;28.70;82.50
24207;DHT22;12351;52.284;9.160;2022-07-03T10:43:27;28.60;86.10
24207;DHT22;12351;52.284;9.160;2022-07-03T10:51:11;28.70;81.40
24207;DHT22;12351;52.284;9.160;2022-07-03T10:53:44;28.80;82.90
24207;DHT22;12351;52.284;9.160;2022-07-03T10:56:17;28.90;83.30
24207;DHT22;12351;52.284;9.160;2022-07-03T11:01:29;28.60;76.30
24207;DHT22;12351;52.284;9.160;2022-07-03T11:04:03;28.70;73.10
24207;DHT22;12351;52.284;9.160;2022-07-03T11:09:09;29.00;79.40
24207;DHT22;12351;52.284;9.160;2022-07-03T11:11:45;28.80;72.60
24207;DHT22;12351;52.284;9.160;2022-07-03T11:14:21;28.50;69.40
24207;DHT22;12351;52.284;9.160;2022-07-03T11:19:31;28.40;73.40
24207;DHT22;12351;52.284;9.160;2022-07-03T11:22:06;28.50;72.00
24207;DHT22;12351;52.284;9.160;2022-07-03T11:24:39;28.40;71.90
24207;DHT22;12351;52.284;9.160;2022-07-03T11:29:50;28.90;71.60
24207;DHT22;12351;52.284;9.160;2022-07-03T11:34:55;28.90;70.30
24207;DHT22;12351;52.284;9.160;2022-07-03T11:37:29;28.50;66.50
24207;DHT22;12351;52.284;9.160;2022-07-03T11:40:04;28.40;67.20
24207;DHT22;12351;52.284;9.160;2022-07-03T11:42:36;28.50;68.80
24207;DHT22;12351;52.284;9.160;2022-07-03T11:45:10;28.60;71.50
24207;DHT22;12351;52.284;9.160;2022-07-03T11:47:43;28.60;71.20
24207;DHT22;12351;52.284;9.160;2022-07-03T11:50:19;28.90;75.10
24207;DHT22;12351;52.284;9.160;2022-07-03T11:52:53;28.80;72.00
24207;DHT22;12351;52.284;9.160;2022-07-03T11:55:25;28.40;68.50
24207;DHT22;12351;52.284;9.160;2022-07-03T11:58:00;28.10;65.30
24207;DHT22;12351;52.284;9.160;2022-07-03T12:00:30;28.10;66.10
24207;DHT22;12351;52.284;9.160;2022-07-03T12:03:05;28.00;72.70
24207;DHT22;12351;52.284;9.160;2022-07-03T12:08:16;28.10;73.70
24207;DHT22;12351;52.284;9.160;2022-07-03T12:10:49;28.10;74.30
24207;DHT22;12351;52.284;9.160;2022-07-03T12:13:25;28.00;71.70
24207;DHT22;12351;52.284;9.160;2022-07-03T12:16:01;28.00;75.10
24207;DHT22;12351;52.284;9.160;2022-07-03T12:21:06;28.30;74.20
24207;DHT22;12351;52.284;9.160;2022-07-03T12:23:40;28.30;73.90
24207;DHT22;12351;52.284;9.160;2022-07-03T12:26:08;28.40;71.40
24207;DHT22;12351;52.284;9.160;2022-07-03T12:28:42;28.30;71.50
24207;DHT22;12351;52.284;9.160;2022-07-03T12:31:14;28.20;68.90
24207;DHT22;12351;52.284;9.160;2022-07-03T12:33:43;28.40;71.00
24207;DHT22;12351;52.284;9.160;2022-07-03T12:36:15;28.40;72.20
24207;DHT22;12351;52.284;9.160;2022-07-03T12:38:48;28.20;70.80
24207;DHT22;12351;52.284;9.160;2022-07-03T12:41:20;28.10;69.70
24207;DHT22;12351;52.284;9.160;2022-07-03T12:43:53;28.10;69.90
24207;DHT22;12351;52.284;9.160;2022-07-03T12:54:11;28.00;68.40
24207;DHT22;12351;52.284;9.160;2022-07-03T12:56:45;28.10;70.80
24207;DHT22;12351;52.284;9.160;2022-07-03T13:07:02;28.20;71.20
24207;DHT22;12351;52.284;9.160;2022-07-03T13:09:35;28.10;65.10
24207;DHT22;12351;52.284;9.160;2022-07-03T13:12:09;28.20;65.10
24207;DHT22;12351;52.284;9.160;2022-07-03T13:14:54;28.10;67.30
24207;DHT22;12351;52.284;9.160;2022-07-03T13:17:19;28.20;64.30
24207;DHT22;12351;52.284;9.160;2022-07-03T13:19:54;28.20;66.80
24207;DHT22;12351;52.284;9.160;2022-07-03T13:22:28;28.30;69.30
24207;DHT22;12351;52.284;9.160;2022-07-03T13:25:04;28.30;67.20
24207;DHT22;12351;52.284;9.160;2022-07-03T13:27:35;28.40;68.40
24207;DHT22;12351;52.284;9.160;2022-07-03T13:30:08;28.50;65.40
24207;DHT22;12351;52.284;9.160;2022-07-03T13:32:44;28.50;67.50
24207;DHT22;12351;52.284;9.160;2022-07-03T13:35:18;28.60;68.90
24207;DHT22;12351;52.284;9.160;2022-07-03T13:37:50;28.30;63.60
24207;DHT22;12351;52.284;9.160;2022-07-03T13:40:25;28.50;68.50
24207;DHT22;12351;52.284;9.160;2022-07-03T13:43:00;28.50;65.40
24207;DHT22;12351;52.284;9.160;2022-07-03T13:45:35;28.60;66.00
24207;DHT22;12351;52.284;9.160;2022-07-03T13:48:05;28.30;63.40
24207;DHT22;12351;52.284;9.160;2022-07-03T13:50:39;28.10;62.40
24207;DHT22;12351;52.284;9.160;2022-07-03T13:53:13;28.10;60.80
24207;DHT22;12351;52.284;9.160;2022-07-03T13:55:45;28.00;63.40
24207;DHT22;12351;52.284;9.160;2022-07-03T13:58:17;28.00;62.10
24207;DHT22;12351;52.284;9.160;2022-07-03T14:00:50;28.00;68.10
24207;DHT22;12351;52.284;9.160;2022-07-03T14:03:23;28.10;65.40
24207;DHT22;12351;52.284;9.160;2022-07-03T14:05:58;28.30;65.00
24207;DHT22;12351;52.284;9.160;2022-07-03T14:08:31;28.10;63.60
24207;DHT22;12351;52.284;9.160;2022-07-03T14:11:05;28.20;66.80
24207;DHT22;12351;52.284;9.160;2022-07-03T14:13:37;28.20;65.70
24207;DHT22;12351;52.284;9.160;2022-07-03T14:16:13;28.30;66.20
24207;DHT22;12351;52.284;9.160;2022-07-03T14:18:45;28.30;66.20
24207;DHT22;12351;52.284;9.160;2022-07-03T14:21:23;28.10;64.40
24207;DHT22;12351;52.284;9.160;2022-07-03T14:23:55;28.20;64.60
24207;DHT22;12351;52.284;9.160;2022-07-03T14:26:27;28.30;66.70
24207;DHT22;12351;52.284;9.160;2022-07-03T14:29:02;28.40;66.30
24207;DHT22;12351;52.284;9.160;2022-07-03T14:31:36;28.20;64.20
24207;DHT22;12351;52.284;9.160;2022-07-03T14:34:09;28.00;64.80
24207;DHT22;12351;52.284;9.160;2022-07-03T14:36:42;27.80;63.40
24207;DHT22;12351;52.284;9.160;2022-07-03T14:39:15;27.70;64.30
24207;DHT22;12351;52.284;9.160;2022-07-03T14:41:50;27.70;62.80
24207;DHT22;12351;52.284;9.160;2022-07-03T14:44:25;27.60;64.30
24207;DHT22;12351;52.284;9.160;2022-07-03T14:46:59;27.50;62.00
24207;DHT22;12351;52.284;9.160;2022-07-03T14:49:29;27.60;61.40
24207;DHT22;12351;52.284;9.160;2022-07-03T14:52:04;27.50;62.90
24207;DHT22;12351;52.284;9.160;2022-07-03T14:54:37;27.60;67.60
24207;DHT22;12351;52.284;9.160;2022-07-03T14:57:15;27.60;68.50
24207;DHT22;12351;52.284;9.160;2022-07-03T15:02:18;27.60;67.70
24207;DHT22;12351;52.284;9.160;2022-07-03T15:07:26;27.60;69.40
24207;DHT22;12351;52.284;9.160;2022-07-03T15:10:03;27.50;71.10
24207;DHT22;12351;52.284;9.160;2022-07-03T15:12:37;27.30;71.30
24207;DHT22;12351;52.284;9.160;2022-07-03T15:15:10;27.10;70.40
24207;DHT22;12351;52.284;9.160;2022-07-03T15:17:43;27.00;69.00
24207;DHT22;12351;52.284;9.160;2022-07-03T15:20:19;26.70;69.70
24207;DHT22;12351;52.284;9.160;2022-07-03T15:22:53;26.60;70.30
24207;DHT22;12351;52.284;9.160;2022-07-03T15:25:29;26.40;70.20
24207;DHT22;12351;52.284;9.160;2022-07-03T15:28:05;26.30;72.80
24207;DHT22;12351;52.284;9.160;2022-07-03T15:30:34;26.30;75.00
24207;DHT22;12351;52.284;9.160;2022-07-03T15:33:11;26.30;76.20
24207;DHT22;12351;52.284;9.160;2022-07-03T15:38:20;26.10;75.40
24207;DHT22;12351;52.284;9.160;2022-07-03T15:40:55;26.10;76.60
24207;DHT22;12351;52.284;9.160;2022-07-03T15:53:49;26.00;80.50
24207;DHT22;12351;52.284;9.160;2022-07-03T15:56:22;26.20;82.60
24207;DHT22;12351;52.284;9.160;2022-07-03T15:58:55;26.40;84.30
24207;DHT22;12351;52.284;9.160;2022-07-03T16:01:31;26.50;86.30
24207;DHT22;12351;52.284;9.160;2022-07-03T16:04:06;26.50;84.20
24207;DHT22;12351;52.284;9.160;2022-07-03T16:06:40;26.50;85.30
24207;DHT22;12351;52.284;9.160;2022-07-03T16:09:15;26.50;85.70
24207;DHT22;12351;52.284;9.160;2022-07-03T16:11:46;26.70;87.40
24207;DHT22;12351;52.284;9.160;2022-07-03T16:14:19;26.70;85.20
24207;DHT22;12351;52.284;9.160;2022-07-03T16:16:51;26.90;84.80
24207;DHT22;12351;52.284;9.160;2022-07-03T16:19:22;27.00;84.50
24207;DHT22;12351;52.284;9.160;2022-07-03T16:21:58;26.70;85.40
24207;DHT22;12351;52.284;9.160;2022-07-03T16:24:31;26.50;84.00
24207;DHT22;12351;52.284;9.160;2022-07-03T16:27:05;26.80;90.30
24207;DHT22;12351;52.284;9.160;2022-07-03T16:29:35;27.00;90.10
24207;DHT22;12351;52.284;9.160;2022-07-03T16:32:11;26.90;90.80
24207;DHT22;12351;52.284;9.160;2022-07-03T16:34:45;27.00;90.70
24207;DHT22;12351;52.284;9.160;2022-07-03T16:37:15;27.10;90.40
24207;DHT22;12351;52.284;9.160;2022-07-03T16:39:44;27.10;90.00
24207;DHT22;12351;52.284;9.160;2022-07-03T16:42:18;27.10;91.20
24207;DHT22;12351;52.284;9.160;2022-07-03T16:44:50;27.10;91.30
24207;DHT22;12351;52.284;9.160;2022-07-03T16:47:26;27.20;92.30
24207;DHT22;12351;52.284;9.160;2022-07-03T16:50:00;27.00;91.40
24207;DHT22;12351;52.284;9.160;2022-07-03T16:52:33;26.90;92.30
24207;DHT22;12351;52.284;9.160;2022-07-03T16:55:05;26.90;91.70
24207;DHT22;12351;52.284;9.160;2022-07-03T16:57:44;26.60;92.20
24207;DHT22;12351;52.284;9.160;2022-07-03T17:00:17;26.30;92.90
24207;DHT22;12351;52.284;9.160;2022-07-03T17:02:50;26.20;92.70
24207;DHT22;12351;52.284;9.160;2022-07-03T17:05:27;26.00;93.80
24207;DHT22;12351;52.284;9.160;2022-07-03T17:07:59;25.70;96.30
24207;DHT22;12351;52.284;9.160;2022-07-03T17:10:34;25.70;96.00
24207;DHT22;12351;52.284;9.160;2022-07-03T17:13:10;25.60;97.80
24207;DHT22;12351;52.284;9.160;2022-07-03T17:15:45;25.40;97.60
24207;DHT22;12351;52.284;9.160;2022-07-03T17:18:16;25.40;98.30
24207;DHT22;12351;52.284;9.160;2022-07-03T17:20:49;25.50;99.90
24207;DHT22;12351;52.284;9.160;2022-07-03T17:23:26;25.40;97.60
24207;DHT22;12351;52.284;9.160;2022-07-03T17:25:58;25.50;99.20
24207;DHT22;12351;52.284;9.160;2022-07-03T17:28:37;25.40;96.90
24207;DHT22;12351;52.284;9.160;2022-07-03T17:31:06;25.60;99.40
24207;DHT22;12351;52.284;9.160;2022-07-03T17:33:41;25.70;98.30
24207;DHT22;12351;52.284;9.160;2022-07-03T17:36:13;25.60;98.60
24207;DHT22;12351;52.284;9.160;2022-07-03T17:38:48;25.50;96.00
24207;DHT22;12351;52.284;9.160;2022-07-03T17:41:20;25.40;97.50
24207;DHT22;12351;52.284;9.160;2022-07-03T17:43:58;25.20;97.00
24207;DHT22;12351;52.284;9.160;2022-07-03T17:46:30;25.20;97.10
24207;DHT22;12351;52.284;9.160;2022-07-03T17:49:04;25.10;96.40
24207;DHT22;12351;52.284;9.160;2022-07-03T17:51:40;25.20;98.50
24207;DHT22;12351;52.284;9.160;2022-07-03T17:54:15;25.20;97.80
24207;DHT22;12351;52.284;9.160;2022-07-03T17:56:48;25.20;97.00
24207;DHT22;12351;52.284;9.160;2022-07-03T17:59:24;25.10;96.00
24207;DHT22;12351;52.284;9.160;2022-07-03T18:01:59;25.20;99.90
24207;DHT22;12351;52.284;9.160;2022-07-03T18:04:32;25.10;99.90
24207;DHT22;12351;52.284;9.160;2022-07-03T18:07:05;25.00;99.90
24207;DHT22;12351;52.284;9.160;2022-07-03T18:09:38;24.80;99.90
24207;DHT22;12351;52.284;9.160;2022-07-03T18:12:13;24.60;99.90